createdAt,value
2023-01-03T08:59:17.709Z,141345.03
2023-01-03T09:04:21.270Z,141353.63
2023-01-03T09:09:26.877Z,141373.34
2023-01-03T09:14:32.242Z,141405.38
2023-01-03T09:19:35.598Z,141437.44
2023-01-03T09:24:38.890Z,141449.78
2023-01-03T09:29:53.270Z,141447.28
2023-01-03T09:41:06.020Z,141471.94
2023-01-03T09:46:18.557Z,141500.22
2023-01-03T09:51:42.326Z,141560.66
2023-01-03T09:57:03.181Z,141550.81
2023-01-03T10:02:33.855Z,141549.56
2023-01-03T10:07:49.683Z,141580.38
2023-01-03T10:13:01.201Z,141587.78
2023-01-03T10:18:11.361Z,141640.81
2023-01-03T10:23:15.161Z,141611.22
2023-01-03T10:28:22.015Z,141634.66
2023-01-03T10:33:35.333Z,141679.09
2023-01-03T10:38:46.259Z,141705.00
2023-01-03T10:44:00.316Z,141746.94
2023-01-03T10:49:31.406Z,141843.22
2023-01-03T10:54:48.009Z,141941.97
2023-01-03T10:59:51.481Z,142097.59
2023-01-03T11:05:12.265Z,142263.19
2023-01-03T11:10:17.304Z,142485.84
2023-01-03T11:15:26.636Z,142742.06
2023-01-03T11:20:37.294Z,142493.31
2023-01-03T11:25:46.359Z,142260.72
2023-01-03T11:31:01.539Z,142217.47
2023-01-03T11:36:18.434Z,142071.66
2023-01-03T11:41:26.952Z,141927.19
2023-01-03T11:46:41.867Z,141914.81
2023-01-03T11:51:53.817Z,141832.09
2023-01-03T11:57:02.377Z,141732.16
2023-01-03T12:02:31.572Z,141751.84
2023-01-03T12:07:48.161Z,141701.25
2023-01-03T12:12:58.587Z,141723.47
2023-01-03T12:18:04.883Z,141712.38
2023-01-03T12:23:17.040Z,141753.09
2023-01-03T12:28:26.028Z,141728.41
2023-01-03T12:33:33.565Z,141681.56
2023-01-03T12:38:39.243Z,141660.56
2023-01-03T12:43:46.966Z,141654.41
2023-01-03T12:48:54.232Z,141665.50
2023-01-03T12:54:12.563Z,141647.03
2023-01-03T12:59:24.221Z,141675.41
2023-01-03T13:04:32.876Z,141714.84
2023-01-03T13:10:09.607Z,141753.09
2023-01-03T13:15:42.888Z,141754.31
2023-01-03T13:20:54.679Z,141718.56
2023-01-03T13:26:24.669Z,141681.56
2023-01-03T13:31:40.611Z,141633.44
2023-01-03T13:37:02.995Z,141597.69
2023-01-03T13:42:20.070Z,141584.09
2023-01-03T13:47:24.947Z,141577.94
2023-01-03T13:52:39.132Z,141566.84
2023-01-03T13:57:54.930Z,141549.56
2023-01-03T14:03:16.418Z,141554.50
2023-01-03T14:08:30.450Z,141553.25
2023-01-03T14:19:52.080Z,141531.06
2023-01-03T14:30:49.981Z,141518.75
2023-01-03T14:36:04.061Z,141511.34
2023-01-03T14:41:24.951Z,141490.44
2023-01-03T14:46:29.218Z,141467.00
2023-01-03T14:51:35.996Z,141421.38
2023-01-03T14:56:39.446Z,141374.59
2023-01-03T15:01:43.671Z,141328.97
2023-01-03T15:07:04.894Z,141272.31
2023-01-03T15:12:14.865Z,141225.53
2023-01-03T15:17:25.683Z,141178.75
2023-01-03T15:22:39.295Z,141151.66
2023-01-03T15:27:43.777Z,141118.41
2023-01-03T15:32:49.707Z,141079.06
2023-01-03T15:37:56.507Z,141058.16
2023-01-03T15:43:22.188Z,141029.84
2023-01-03T15:48:26.697Z,141005.25
2023-01-03T15:53:35.416Z,140992.91
2023-01-03T15:58:42.787Z,140980.63
2023-01-03T16:03:46.208Z,140962.16
2023-01-03T16:08:51.240Z,140935.09
2023-01-03T16:13:55.729Z,140926.50
2023-01-03T16:18:59.524Z,140932.63
2023-01-03T16:24:10.549Z,140924.03
2023-01-03T16:29:19.881Z,140926.50
2023-01-03T16:34:31.734Z,140943.69
2023-01-03T16:39:47.707Z,140944.91
2023-01-03T16:44:58.076Z,140927.72
2023-01-03T16:50:04.838Z,140914.16
2023-01-03T16:55:37.918Z,140896.97
2023-01-03T17:00:45.422Z,140893.28
2023-01-03T17:05:50.078Z,140866.22
2023-01-03T17:10:54.368Z,140841.63
2023-01-03T17:15:59.896Z,140821.94
2023-01-03T17:21:07.337Z,140796.13
2023-01-03T17:26:13.895Z,140781.41
2023-01-03T17:31:21.980Z,140763.00
2023-01-03T17:36:29.920Z,140743.31
2023-01-03T17:41:54.601Z,140732.25
2023-01-03T17:47:30.795Z,140732.25
2023-01-03T17:52:59.752Z,140744.53
2023-01-03T17:58:04.707Z,140740.84
2023-01-03T18:03:13.471Z,140754.41
2023-01-03T18:08:18.986Z,140758.06
2023-01-03T18:13:28.060Z,140764.22
2023-01-03T18:18:33.343Z,140759.31
2023-01-03T18:23:40.389Z,140756.84
2023-01-03T18:29:01.366Z,140748.22
2023-01-03T18:34:05.123Z,140744.53
2023-01-03T18:39:19.075Z,140690.47
2023-01-03T18:44:24.937Z,140680.63
2023-01-03T18:49:28.337Z,140681.88
2023-01-03T18:54:31.853Z,140663.41
2023-01-03T18:59:36.684Z,140710.13
2023-01-03T19:04:40.033Z,140763.00
2023-01-03T19:09:44.040Z,140806.00
2023-01-03T19:14:48.915Z,140847.78
2023-01-03T19:19:52.537Z,140865.00
2023-01-03T19:24:58.459Z,140912.94
2023-01-03T19:30:03.973Z,140921.59
2023-01-03T19:35:14.457Z,140958.47
2023-01-03T19:40:18.884Z,140964.63
2023-01-03T19:45:27.003Z,140979.41
2023-01-03T19:50:31.975Z,141000.28
2023-01-03T19:55:39.344Z,141019.97
2023-01-03T20:00:44.737Z,141007.69
2023-01-03T20:05:48.755Z,140995.38
2023-01-03T20:10:53.573Z,141006.47
2023-01-03T20:16:02.330Z,141016.28
2023-01-03T20:21:07.396Z,141034.78
2023-01-03T20:26:18.355Z,141039.69
2023-01-03T20:31:23.279Z,141069.22
2023-01-03T20:36:29.990Z,141060.63
2023-01-03T20:41:37.257Z,141063.06
2023-01-03T20:46:42.228Z,141092.63
2023-01-03T20:51:48.568Z,141081.50
2023-01-03T20:56:51.950Z,141074.13
2023-01-03T21:01:56.932Z,141048.28
2023-01-03T21:07:02.772Z,140989.22
2023-01-03T21:12:09.737Z,140976.94
2023-01-03T21:17:14.387Z,140990.44
2023-01-03T21:22:20.439Z,140999.06
2023-01-03T21:27:23.788Z,141015.06
2023-01-03T21:32:28.544Z,141027.34
2023-01-03T21:37:34.053Z,141053.19
2023-01-03T21:42:59.926Z,141065.53
2023-01-03T21:48:10.832Z,141071.69
2023-01-03T21:53:15.719Z,141096.31
2023-01-03T21:58:21.097Z,141111.03
2023-01-03T22:03:46.161Z,141136.84
2023-01-03T22:08:49.610Z,141146.72
2023-01-03T22:13:55.605Z,141175.06
2023-01-03T22:19:01.127Z,141192.25
2023-01-03T22:24:07.332Z,141199.69
